createdAt,value
2022-11-05T00:00:21.094Z,12.00
2022-11-05T00:03:06.597Z,12.00
2022-11-05T00:05:52.091Z,12.00
2022-11-05T00:08:37.495Z,12.00
2022-11-05T00:11:04.300Z,12.00
2022-11-05T00:13:49.504Z,12.00
2022-11-05T00:16:34.830Z,12.00
2022-11-05T00:19:08.064Z,12.00
2022-11-05T00:21:57.944Z,12.00
2022-11-05T00:24:43.915Z,12.00
2022-11-05T00:27:11.189Z,12.00
2022-11-05T00:29:37.936Z,12.00
2022-11-05T00:32:04.953Z,12.00
2022-11-05T00:34:31.899Z,12.00
2022-11-05T00:36:58.604Z,11.90
2022-11-05T00:39:25.327Z,12.00
2022-11-05T00:42:12.480Z,12.00
2022-11-05T00:44:57.973Z,12.00
2022-11-05T00:47:43.292Z,12.00
2022-11-05T00:50:10.800Z,12.00
2022-11-05T00:52:56.602Z,12.00
2022-11-05T00:55:28.445Z,12.00
2022-11-05T00:57:56.151Z,12.00
2022-11-05T01:00:24.131Z,12.00
2022-11-05T01:02:52.109Z,12.00
2022-11-05T01:05:20.600Z,11.90
2022-11-05T01:07:48.658Z,11.90
2022-11-05T01:10:16.434Z,11.90
2022-11-05T01:12:45.385Z,12.00
2022-11-05T01:15:12.279Z,11.90
2022-11-05T01:17:39.057Z,11.90
2022-11-05T01:20:06.259Z,11.90
2022-11-05T01:22:33.009Z,11.90
2022-11-05T01:24:59.769Z,11.90
2022-11-05T01:27:26.530Z,11.90
2022-11-05T01:29:53.258Z,11.90
2022-11-05T01:32:20.012Z,11.90
2022-11-05T01:34:46.872Z,11.90
2022-11-05T01:37:14.112Z,11.90
2022-11-05T01:39:40.860Z,11.90
2022-11-05T01:42:18.977Z,11.90
2022-11-05T01:45:02.385Z,11.90
2022-11-05T01:47:41.428Z,11.90
2022-11-05T01:50:36.001Z,11.90
2022-11-05T01:53:08.849Z,11.90
2022-11-05T01:55:40.360Z,11.80
2022-11-05T01:58:09.731Z,11.80
2022-11-05T02:00:39.269Z,11.80
2022-11-05T02:03:06.200Z,11.80
2022-11-05T02:05:34.179Z,11.80
2022-11-05T02:08:01.172Z,11.80
2022-11-05T02:10:28.623Z,11.80
2022-11-05T02:12:55.368Z,11.80
2022-11-05T02:15:36.880Z,11.80
2022-11-05T02:18:20.920Z,11.80
2022-11-05T02:21:17.281Z,11.80
2022-11-05T02:24:05.921Z,11.80
2022-11-05T02:26:38.401Z,11.80
2022-11-05T02:29:33.238Z,11.80
2022-11-05T02:32:04.472Z,11.80
2022-11-05T02:34:36.922Z,11.80
2022-11-05T02:37:19.759Z,11.80
2022-11-05T02:40:20.720Z,11.80
2022-11-05T02:43:16.148Z,11.80
2022-11-05T02:46:19.775Z,11.80
2022-11-05T02:48:50.396Z,11.80
2022-11-05T02:51:22.206Z,11.80
2022-11-05T02:54:03.418Z,11.80
2022-11-05T02:56:35.545Z,11.80
2022-11-05T02:59:02.205Z,11.80
2022-11-05T03:01:29.037Z,11.80
2022-11-05T03:04:01.932Z,11.80
2022-11-05T03:06:31.451Z,11.80
2022-11-05T03:09:24.789Z,11.80
2022-11-05T03:11:56.988Z,11.80
2022-11-05T03:14:29.400Z,11.80
2022-11-05T03:17:06.242Z,11.80
2022-11-05T03:19:39.049Z,11.80
2022-11-05T03:22:16.378Z,11.80
2022-11-05T03:24:49.425Z,11.80
2022-11-05T03:27:23.527Z,11.80
2022-11-05T03:29:54.905Z,11.80
2022-11-05T03:32:22.823Z,11.80
2022-11-05T03:35:21.210Z,11.80
2022-11-05T03:37:51.062Z,11.80
2022-11-05T03:40:21.430Z,11.80
2022-11-05T03:42:52.072Z,11.80
2022-11-05T03:45:26.597Z,11.80
2022-11-05T03:47:57.674Z,11.80
2022-11-05T03:50:47.929Z,11.80
2022-11-05T03:53:22.845Z,11.80
2022-11-05T03:56:02.044Z,11.80
2022-11-05T03:58:30.045Z,11.80
2022-11-05T04:01:00.928Z,11.80
2022-11-05T04:03:27.688Z,11.80
2022-11-05T04:06:15.194Z,11.80
2022-11-05T04:09:00.556Z,11.80
2022-11-05T04:11:45.911Z,11.80
2022-11-05T04:14:12.552Z,11.80
2022-11-05T04:16:57.753Z,11.80
2022-11-05T04:19:43.114Z,11.80
2022-11-05T04:22:28.531Z,11.80
2022-11-05T04:24:55.220Z,11.80
2022-11-05T04:27:21.944Z,11.80
2022-11-05T04:30:07.467Z,11.80
2022-11-05T04:32:34.192Z,11.80
2022-11-05T04:35:00.933Z,11.80
2022-11-05T04:37:27.616Z,11.80
2022-11-05T04:39:54.290Z,11.80
2022-11-05T04:42:21.026Z,11.80
2022-11-05T04:44:47.762Z,11.70
2022-11-05T04:47:14.451Z,11.80
2022-11-05T04:49:41.259Z,11.80
2022-11-05T04:52:07.959Z,11.80
2022-11-05T04:54:34.646Z,11.80
2022-11-05T04:57:01.375Z,11.70
2022-11-05T04:59:28.016Z,11.80
2022-11-05T05:01:54.721Z,11.70
2022-11-05T05:04:21.447Z,11.70
2022-11-05T05:06:48.124Z,11.70
2022-11-05T05:09:14.879Z,11.70
2022-11-05T05:11:41.603Z,11.70
2022-11-05T05:14:08.633Z,11.70
2022-11-05T05:16:35.349Z,11.70
2022-11-05T05:19:02.038Z,11.70
2022-11-05T05:21:41.034Z,11.70
2022-11-05T05:24:16.894Z,11.70
2022-11-05T05:26:46.419Z,11.70
2022-11-05T05:29:13.490Z,11.70
2022-11-05T05:31:40.430Z,11.70
2022-11-05T05:34:10.182Z,11.70
2022-11-05T05:36:36.908Z,11.70
2022-11-05T05:39:08.275Z,11.70
2022-11-05T05:41:34.993Z,11.70
2022-11-05T05:44:01.679Z,11.70
2022-11-05T05:46:28.330Z,11.70
2022-11-05T05:48:54.978Z,11.70
2022-11-05T05:51:21.694Z,11.70
2022-11-05T05:53:48.397Z,11.70
2022-11-05T05:56:19.111Z,11.70
2022-11-05T05:58:46.241Z,11.70
2022-11-05T06:01:19.309Z,11.70
2022-11-05T06:03:48.090Z,11.70
2022-11-05T06:06:19.510Z,11.70
2022-11-05T06:08:46.810Z,11.70
2022-11-05T06:11:13.770Z,11.70
2022-11-05T06:13:40.483Z,11.70
2022-11-05T06:16:08.912Z,11.70
2022-11-05T06:18:36.283Z,11.70
2022-11-05T06:21:08.154Z,11.70
2022-11-05T06:23:37.350Z,11.70
2022-11-05T06:26:10.084Z,11.70
2022-11-05T06:28:37.457Z,11.70
2022-11-05T06:31:04.759Z,11.70
2022-11-05T06:33:31.887Z,11.70
2022-11-05T06:35:59.918Z,11.70
2022-11-05T06:38:26.609Z,11.70
2022-11-05T06:40:53.281Z,11.70
2022-11-05T06:43:19.970Z,11.60
2022-11-05T06:45:46.742Z,11.60
2022-11-05T06:48:13.396Z,11.60
2022-11-05T06:50:44.368Z,11.60
2022-11-05T06:53:11.943Z,11.60
2022-11-05T06:55:39.005Z,11.60
2022-11-05T06:58:06.159Z,11.60
2022-11-05T07:00:32.965Z,11.70
2022-11-05T07:03:07.638Z,11.60
2022-11-05T07:05:38.510Z,11.70
2022-11-05T07:08:05.295Z,11.70
2022-11-05T07:10:32.203Z,11.70
2022-11-05T07:13:02.377Z,11.70
2022-11-05T07:15:31.794Z,11.70
2022-11-05T07:18:00.511Z,11.70
2022-11-05T07:20:33.188Z,11.70
2022-11-05T07:23:01.960Z,11.70
2022-11-05T07:25:30.276Z,11.70
2022-11-05T07:27:57.010Z,11.60
2022-11-05T07:30:24.190Z,11.60
2022-11-05T07:32:50.958Z,11.60
2022-11-05T07:35:18.035Z,11.60
2022-11-05T07:37:57.950Z,11.70
2022-11-05T07:40:27.613Z,11.60
2022-11-05T07:42:59.202Z,11.60
2022-11-05T07:45:27.765Z,11.60
2022-11-05T07:47:56.860Z,11.60
2022-11-05T07:50:26.558Z,11.60
2022-11-05T07:52:53.481Z,11.60
2022-11-05T07:55:20.913Z,11.60
2022-11-05T07:57:49.957Z,11.60
2022-11-05T08:00:21.549Z,11.60
2022-11-05T08:03:02.306Z,11.60
2022-11-05T08:05:36.754Z,11.60
2022-11-05T08:08:04.590Z,11.60
2022-11-05T08:10:31.323Z,11.60
2022-11-05T08:12:58.181Z,11.70
2022-11-05T08:15:24.952Z,11.60
2022-11-05T08:18:08.057Z,11.60
2022-11-05T08:20:36.078Z,11.60
2022-11-05T08:23:03.149Z,11.60
2022-11-05T08:25:31.626Z,11.50
2022-11-05T08:28:04.379Z,11.40
2022-11-05T08:30:32.510Z,11.40
2022-11-05T08:33:01.969Z,11.30
2022-11-05T08:35:29.790Z,11.30
2022-11-05T08:38:04.829Z,11.20
2022-11-05T08:40:33.945Z,11.20
2022-11-05T08:43:04.513Z,11.20
2022-11-05T08:45:31.594Z,11.10
2022-11-05T08:47:59.927Z,11.10
2022-11-05T08:50:27.266Z,11.10
2022-11-05T08:52:54.058Z,11.00
2022-11-05T08:55:20.713Z,11.00
2022-11-05T08:57:47.565Z,11.10
2022-11-05T09:00:15.234Z,11.00
2022-11-05T09:02:42.181Z,11.10
2022-11-05T09:05:09.254Z,11.10
2022-11-05T09:07:35.936Z,11.10
2022-11-05T09:10:02.836Z,11.10
2022-11-05T09:12:29.650Z,11.00
2022-11-05T09:14:56.372Z,11.10
2022-11-05T09:17:23.378Z,11.10
2022-11-05T09:19:50.086Z,11.10
2022-11-05T09:22:16.816Z,11.10
2022-11-05T09:24:43.738Z,11.10
2022-11-05T09:27:13.199Z,11.10
2022-11-05T09:29:42.825Z,11.10
2022-11-05T09:32:09.836Z,11.10
2022-11-05T09:34:36.550Z,11.10
2022-11-05T09:37:04.034Z,11.10
2022-11-05T09:39:30.807Z,11.10
2022-11-05T09:42:02.526Z,11.20
2022-11-05T09:44:52.501Z,11.20
2022-11-05T09:47:25.945Z,11.20
2022-11-05T09:49:54.980Z,11.20
2022-11-05T09:52:22.783Z,11.20
2022-11-05T09:54:50.442Z,11.20
2022-11-05T09:57:30.929Z,11.30
2022-11-05T10:00:01.816Z,11.30
2022-11-05T10:02:35.254Z,11.30
2022-11-05T10:05:10.163Z,11.30
2022-11-05T10:07:50.782Z,11.40
2022-11-05T10:10:26.273Z,11.40
2022-11-05T10:13:22.435Z,11.40
2022-11-05T10:15:55.753Z,11.40
2022-11-05T10:18:30.634Z,11.40
2022-11-05T10:20:57.543Z,11.40
2022-11-05T10:23:27.565Z,11.40
2022-11-05T10:26:04.015Z,11.40
2022-11-05T10:28:32.882Z,11.40
2022-11-05T10:31:03.241Z,11.40
2022-11-05T10:33:39.274Z,11.40
2022-11-05T10:36:10.629Z,11.30
2022-11-05T10:38:37.674Z,11.30
2022-11-05T10:41:21.425Z,11.40
2022-11-05T10:43:56.984Z,11.40
2022-11-05T10:46:42.321Z,11.40
2022-11-05T10:49:37.804Z,11.40
2022-11-05T10:52:33.373Z,11.40
2022-11-05T10:55:02.840Z,11.50
2022-11-05T10:57:41.778Z,11.50
2022-11-05T11:00:18.171Z,11.60
2022-11-05T11:02:52.527Z,11.60
2022-11-05T11:05:21.616Z,11.60
2022-11-05T11:08:00.226Z,11.60
2022-11-05T11:10:27.792Z,11.70
2022-11-05T11:12:56.900Z,11.70
2022-11-05T11:15:27.476Z,11.70
2022-11-05T11:17:56.316Z,11.80
2022-11-05T11:20:33.460Z,11.80
2022-11-05T11:23:12.044Z,11.80
2022-11-05T11:25:51.141Z,11.80
2022-11-05T11:28:26.599Z,11.80
2022-11-05T11:31:05.533Z,11.80
2022-11-05T11:33:33.828Z,11.80
2022-11-05T11:36:01.217Z,11.80
2022-11-05T11:38:33.750Z,11.90
2022-11-05T11:41:11.485Z,12.00
2022-11-05T11:43:41.198Z,12.20
2022-11-05T11:46:20.959Z,12.30
2022-11-05T11:48:49.131Z,12.40
2022-11-05T11:51:20.444Z,12.40
2022-11-05T11:53:49.403Z,12.50
2022-11-05T11:56:19.609Z,12.60
2022-11-05T11:58:52.143Z,12.60
2022-11-05T12:01:18.823Z,12.60
2022-11-05T12:04:12.013Z,12.50
2022-11-05T12:06:41.611Z,12.50
2022-11-05T12:09:32.752Z,12.40
2022-11-05T12:12:14.034Z,12.30
2022-11-05T12:14:58.604Z,12.40
2022-11-05T12:17:37.732Z,12.30
2022-11-05T12:20:23.968Z,12.30
2022-11-05T12:23:09.560Z,12.30
2022-11-05T12:25:56.483Z,12.40
2022-11-05T12:29:04.464Z,12.50
2022-11-05T12:31:50.774Z,12.50
2022-11-05T12:34:36.315Z,12.60
2022-11-05T12:37:30.860Z,12.70
2022-11-05T12:40:00.797Z,12.90
2022-11-05T12:42:58.444Z,13.00
2022-11-05T12:45:32.918Z,13.10
2022-11-05T12:48:02.911Z,13.20
2022-11-05T12:51:02.395Z,13.20
2022-11-05T12:53:29.091Z,13.10
2022-11-05T12:55:59.607Z,13.00
2022-11-05T12:58:35.086Z,13.00
2022-11-05T13:01:08.186Z,13.00
2022-11-05T13:03:43.035Z,13.30
2022-11-05T13:06:12.594Z,13.70
2022-11-05T13:08:57.666Z,14.00
2022-11-05T13:11:28.488Z,14.40
2022-11-05T13:14:13.172Z,14.70
2022-11-05T13:16:48.339Z,15.00
2022-11-05T13:19:45.430Z,15.30
2022-11-05T13:22:42.761Z,15.40
2022-11-05T13:25:15.025Z,15.60
2022-11-05T13:27:53.815Z,15.70
2022-11-05T13:30:26.669Z,15.60
2022-11-05T13:33:06.547Z,15.30
2022-11-05T13:35:47.141Z,15.10
2022-11-05T13:38:44.471Z,14.90
2022-11-05T13:41:43.399Z,14.70
2022-11-05T13:44:32.206Z,14.40
2022-11-05T13:47:27.615Z,14.20
2022-11-05T13:50:21.666Z,14.10
2022-11-05T13:53:23.523Z,13.90
2022-11-05T13:55:53.344Z,13.80
2022-11-05T13:58:58.365Z,13.60
2022-11-05T14:02:04.389Z,13.50
2022-11-05T14:04:31.141Z,13.40
2022-11-05T14:07:15.416Z,13.30
2022-11-05T14:09:43.171Z,13.20
2022-11-05T14:12:40.040Z,13.20
2022-11-05T14:15:21.070Z,13.20
2022-11-05T14:17:56.733Z,13.10
2022-11-05T14:20:38.353Z,13.10
2022-11-05T14:23:39.000Z,13.10
2022-11-05T14:26:27.321Z,13.00
2022-11-05T14:29:03.553Z,13.00
2022-11-05T14:32:07.752Z,13.00
2022-11-05T14:34:44.744Z,13.00
2022-11-05T14:37:11.797Z,12.90
2022-11-05T14:39:40.022Z,12.90
2022-11-05T14:42:17.254Z,12.90
2022-11-05T14:45:23.320Z,12.90
2022-11-05T14:47:57.075Z,12.90
2022-11-05T14:50:41.880Z,12.80
2022-11-05T14:53:31.710Z,12.80
2022-11-05T14:56:01.432Z,12.80
2022-11-05T14:58:31.259Z,12.70
2022-11-05T15:00:59.532Z,12.70
2022-11-05T15:03:45.804Z,12.70
2022-11-05T15:06:35.232Z,12.70
2022-11-05T15:09:13.354Z,12.60
2022-11-05T15:11:49.845Z,12.60
2022-11-05T15:14:55.239Z,12.60
2022-11-05T15:17:42.621Z,12.60
2022-11-05T15:20:22.084Z,12.60
2022-11-05T15:22:56.914Z,12.60
2022-11-05T15:25:53.126Z,12.60
2022-11-05T15:28:28.604Z,12.50
2022-11-05T15:31:00.967Z,12.50
2022-11-05T15:33:28.429Z,12.50
2022-11-05T15:35:55.685Z,12.50
2022-11-05T15:38:29.485Z,12.50
2022-11-05T15:41:17.448Z,12.50
2022-11-05T15:43:48.062Z,12.50
2022-11-05T15:46:24.576Z,12.50
2022-11-05T15:49:02.114Z,12.50
2022-11-05T15:51:29.932Z,12.50
2022-11-05T15:56:59.146Z,12.50
2022-11-05T15:59:28.260Z,12.50
2022-11-05T16:02:23.625Z,12.40
2022-11-05T16:04:51.324Z,12.40
2022-11-05T16:07:18.766Z,12.40
2022-11-05T16:09:57.608Z,12.40
2022-11-05T16:12:32.655Z,12.30
2022-11-05T16:14:59.411Z,12.30
2022-11-05T16:17:33.323Z,12.30
2022-11-05T16:20:00.408Z,12.30
2022-11-05T16:22:45.482Z,12.30
2022-11-05T16:25:27.952Z,12.30
2022-11-05T16:27:55.820Z,12.30
2022-11-05T16:30:22.936Z,12.30
2022-11-05T16:32:50.161Z,12.30
2022-11-05T16:35:22.376Z,12.30
2022-11-05T16:37:52.324Z,12.30
2022-11-05T16:40:25.052Z,12.30
2022-11-05T16:42:53.785Z,12.30
2022-11-05T16:45:23.902Z,12.30
2022-11-05T16:47:51.013Z,12.30
2022-11-05T16:50:25.109Z,12.30
2022-11-05T16:52:52.498Z,12.20
2022-11-05T16:55:19.626Z,12.30
2022-11-05T16:57:49.661Z,12.20
2022-11-05T17:00:19.062Z,12.20
2022-11-05T17:02:46.335Z,12.20
2022-11-05T17:05:18.731Z,12.20
2022-11-05T17:07:45.625Z,12.10
2022-11-05T17:10:12.413Z,12.10
2022-11-05T17:12:39.260Z,12.00
2022-11-05T17:15:18.006Z,12.00
2022-11-05T17:17:45.297Z,11.90
2022-11-05T17:20:50.778Z,11.90
2022-11-05T17:23:23.675Z,11.80
2022-11-05T17:25:56.398Z,11.80
2022-11-05T17:28:23.166Z,11.70
2022-11-05T17:30:52.880Z,11.70
2022-11-05T17:33:21.276Z,11.70
2022-11-05T17:35:48.408Z,11.70
2022-11-05T17:38:15.480Z,11.60
2022-11-05T17:40:42.586Z,11.60
2022-11-05T17:43:10.045Z,11.50
2022-11-05T17:45:49.759Z,11.50
2022-11-05T17:48:17.156Z,11.50
2022-11-05T17:50:46.802Z,11.40
2022-11-05T17:53:14.844Z,11.40
2022-11-05T17:55:43.230Z,11.40
2022-11-05T17:58:10.537Z,11.30
2022-11-05T18:00:38.364Z,11.30
2022-11-05T18:03:05.380Z,11.30
2022-11-05T18:05:33.797Z,11.20
2022-11-05T18:08:00.822Z,11.20
2022-11-05T18:10:27.736Z,11.20
2022-11-05T18:12:54.685Z,11.20
2022-11-05T18:15:21.821Z,11.10
2022-11-05T18:17:48.718Z,11.00
2022-11-05T18:20:19.265Z,11.00
2022-11-05T18:22:48.805Z,11.00
2022-11-05T18:25:16.211Z,11.00
2022-11-05T18:27:43.450Z,10.90
2022-11-05T18:30:14.098Z,10.90
2022-11-05T18:32:41.596Z,10.90
2022-11-05T18:35:08.952Z,10.80
2022-11-05T18:37:37.808Z,10.80
2022-11-05T18:40:05.519Z,10.80
2022-11-05T18:42:32.603Z,10.80
2022-11-05T18:44:59.452Z,10.80
2022-11-05T18:47:26.317Z,10.70
2022-11-05T18:49:53.340Z,10.70
2022-11-05T18:52:20.361Z,10.70
2022-11-05T18:54:47.353Z,10.60
2022-11-05T18:57:14.073Z,10.60
2022-11-05T18:59:42.176Z,10.60
2022-11-05T19:02:11.165Z,10.60
2022-11-05T19:04:38.756Z,10.60
2022-11-05T19:07:07.056Z,10.50
2022-11-05T19:09:35.061Z,10.50
2022-11-05T19:12:02.974Z,10.50
2022-11-05T19:14:30.320Z,10.50
2022-11-05T19:17:01.066Z,10.40
2022-11-05T19:19:28.600Z,10.40
2022-11-05T19:21:55.338Z,10.40
2022-11-05T19:24:22.331Z,10.30
2022-11-05T19:26:49.183Z,10.30
2022-11-05T19:29:16.392Z,10.30
2022-11-05T19:31:43.475Z,10.30
2022-11-05T19:34:10.320Z,10.20
2022-11-05T19:36:37.177Z,10.20
2022-11-05T19:39:09.029Z,10.20
2022-11-05T19:41:36.146Z,10.10
2022-11-05T19:44:03.681Z,10.10
2022-11-05T19:46:31.395Z,10.10
2022-11-05T19:49:00.526Z,10.10
2022-11-05T19:51:32.710Z,10.10
2022-11-05T19:54:00.996Z,10.10
2022-11-05T19:56:31.883Z,10.10
2022-11-05T19:58:59.815Z,10.00
2022-11-05T20:01:28.206Z,10.00
2022-11-05T20:03:57.463Z,9.90
2022-11-05T20:06:32.001Z,9.90
2022-11-05T20:11:48.843Z,9.80
2022-11-05T20:14:15.896Z,9.80
2022-11-05T20:16:43.387Z,9.90
2022-11-05T20:19:13.350Z,9.90
2022-11-05T20:21:40.412Z,9.90
2022-11-05T20:24:07.958Z,9.80
2022-11-05T20:26:34.685Z,9.80
2022-11-05T20:29:01.582Z,9.80
2022-11-05T20:31:28.552Z,9.80
2022-11-05T20:33:55.395Z,9.80
2022-11-05T20:36:24.246Z,9.80
2022-11-05T20:38:58.045Z,9.80
2022-11-05T20:41:26.236Z,9.80
2022-11-05T20:43:54.126Z,9.80
2022-11-05T20:46:22.390Z,10.00
2022-11-05T20:48:49.777Z,10.00
2022-11-05T20:51:19.387Z,10.00
2022-11-05T20:53:47.072Z,10.00
2022-11-05T20:56:18.955Z,10.00
2022-11-05T20:58:46.043Z,9.90
2022-11-05T21:01:13.773Z,9.90
2022-11-05T21:03:40.605Z,9.90
2022-11-05T21:06:07.688Z,9.90
2022-11-05T21:08:34.883Z,9.90
2022-11-05T21:11:01.965Z,9.90
2022-11-05T21:13:28.978Z,9.80
2022-11-05T21:15:58.481Z,9.80
2022-11-05T21:18:28.944Z,9.80
2022-11-05T21:20:55.874Z,9.80
2022-11-05T21:23:23.287Z,9.80
2022-11-05T21:25:50.108Z,9.80
2022-11-05T21:28:17.206Z,9.80
2022-11-05T21:30:46.164Z,9.80
2022-11-05T21:33:14.796Z,9.80
2022-11-05T21:35:45.832Z,9.70
2022-11-05T21:38:14.566Z,9.70
2022-11-05T21:40:41.745Z,9.70
2022-11-05T21:43:08.972Z,9.70
2022-11-05T21:45:38.843Z,9.60
2022-11-05T21:48:06.738Z,9.60
2022-11-05T21:50:52.119Z,9.60
2022-11-05T21:53:38.157Z,9.50
2022-11-05T21:56:35.726Z,9.50
2022-11-05T21:59:21.029Z,9.40
2022-11-05T22:01:48.225Z,9.40
2022-11-05T22:04:15.325Z,9.40
2022-11-05T22:06:44.456Z,9.40
2022-11-05T22:09:11.258Z,9.40
2022-11-05T22:11:38.161Z,9.30
2022-11-05T22:14:04.933Z,9.30
2022-11-05T22:16:31.761Z,9.40
2022-11-05T22:18:59.200Z,9.30
2022-11-05T22:21:26.121Z,9.30
2022-11-05T22:23:53.547Z,9.30
2022-11-05T22:26:20.347Z,9.30
2022-11-05T22:28:47.210Z,9.20
2022-11-05T22:31:17.587Z,9.20
2022-11-05T22:33:44.730Z,9.30
2022-11-05T22:36:12.204Z,9.30
2022-11-05T22:38:39.896Z,9.20
2022-11-05T22:41:12.421Z,9.20
2022-11-05T22:43:39.564Z,9.30
2022-11-05T22:46:12.211Z,9.20
2022-11-05T22:48:40.165Z,9.20
2022-11-05T22:51:13.191Z,9.20
2022-11-05T22:53:41.276Z,9.20
2022-11-05T22:56:10.616Z,9.20
2022-11-05T22:58:37.862Z,9.20
2022-11-05T23:01:06.782Z,9.20
2022-11-05T23:03:34.352Z,9.20
2022-11-05T23:06:04.696Z,9.20
2022-11-05T23:08:50.827Z,9.20
2022-11-05T23:11:38.724Z,9.20
2022-11-05T23:14:08.016Z,9.10
2022-11-05T23:16:54.288Z,9.20
2022-11-05T23:19:40.425Z,9.20
2022-11-05T23:22:46.122Z,9.10
2022-11-05T23:25:17.184Z,9.10
2022-11-05T23:27:45.688Z,9.10
2022-11-05T23:30:19.204Z,9.10
2022-11-05T23:32:46.582Z,9.10
2022-11-05T23:35:14.041Z,9.10
2022-11-05T23:37:59.861Z,9.10
2022-11-05T23:40:29.648Z,9.10
2022-11-05T23:43:15.947Z,9.10
2022-11-05T23:46:02.974Z,9.10
2022-11-05T23:48:35.984Z,9.00
2022-11-05T23:51:09.259Z,9.00
2022-11-05T23:53:38.350Z,9.00
2022-11-05T23:56:06.929Z,9.00
2022-11-05T23:58:34.161Z,9.00
